Página principal
METAR-TAF:

METAR-TAF

Aeroportos :

Ilha de São Vicente, Cabo Verde

Aeroporto de São Pedro

latitude: 16-49-59N, longitude: 25-03-25W, altura: 20 m

Observação actual do tempo

O boletim foi feito há 52 minutos, às 22:00 UTC
Vento 16 kt de nordeste
Temperatura 24°C
Humidade 69%
Pressão 1013 hPa
Visibilidade 10 km ou mais
Poucas nuvensa uma altura de 2200 ft
Nuvens dispersasa uma altura de 2700 ft

METAR: GVSV 152200Z 05016KT 9999 FEW022 SCT027 24/18 Q1013 NOSIG

Hora: 21:52 (22:52 UTC)

Previsão

O boletim foi feito há 5 horas e 52 minutos, às 17:00 UTC
Previsão válida de 15 às 18 UTC a 16 às 24 UTC
Vento 18 kt de es-nordeste
Visibilidade 10 km ou mais
Nuvens dispersasa uma altura de 2000 ft
Temporariamente
de 15 às 18 UTC a 15 às 24 UTC
Poucas nuvensa uma altura de 1800 ft
Nuvens fragmentadasa uma altura de 2200 ft

TAF: GVSV 151700Z 1518/1624 06018KT 9999 SCT020 TEMPO 1518/1524 FEW018 BKN022

Observações e previsões do tempo de mais de 4000 aeroportos (mensagens METAR e TAF).

As estações disponíveis são os pontos amarelos e vermelhos sobre o mapa.

Mova o rato sobre o mapa para ver o nome da estação.

Depois clique no ponto para visualizar as observações e previsões meteorológicas.

Para alterar o mapa : clique nos botões verdes com uma cruz preta para aumentar o zoom; no botão verde com uma pitada de zoom; ou nas setas verdes para mapas adjacentes.


METAR-TAF: